| time (UTC) | temp C | wind direction | speed KPH | gust KPH | rain 1hr cm | rain 24hr cm | rain mn cm | humidity % | barometer mb |
| 20260510065807 | 19 | 154 | 0.0 | 1.6 | 0.00 | 7.16 | 0.00 | 100 | 1012.0 |
| 20260510065306 | 19 | 154 | 0.0 | 1.6 | 0.00 | 7.16 | 0.00 | 100 | 1011.9 |
| 20260510064804 | 19 | 154 | 0.0 | 1.6 | 0.00 | 7.16 | 0.00 | 100 | 1011.9 |
| 20260510064303 | 19 | 154 | 0.0 | 1.6 | 0.00 | 7.16 | 0.00 | 100 | 1011.9 |
| 20260510063803 | 19 | 154 | 0.0 | 1.6 | 0.00 | 7.16 | 0.00 | 100 | 1011.8 |
| 20260510063302 | 19 | 154 | 0.0 | 1.6 | 0.00 | 7.16 | 0.00 | 100 | 1011.9 |
| 20260510062759 | 19 | 154 | 0.0 | 0.0 | 0.00 | 7.16 | 0.00 | 100 | 1011.9 |
| 20260510062300 | 19 | 154 | 0.0 | 0.0 | 0.00 | 7.16 | 0.00 | 100 | 1011.9 |
| 20260510061758 | 19 | 154 | 0.0 | 0.0 | 0.00 | 7.16 | 0.00 | 100 | 1011.8 |
| 20260510061258 | 19 | 154 | 0.0 | 0.0 | 0.00 | 7.16 | 0.00 | 100 | 1011.8 |
| 20260510060800 | 19 | 154 | 0.0 | 0.0 | 0.00 | 7.16 | 0.00 | 100 | 1012.0 |
| 20260510060300 | 20 | 154 | 0.0 | 1.6 | 0.00 | 7.16 | 0.00 | 100 | 1012.1 |
| 20260510055759 | 19 | 154 | 0.0 | 1.6 | 0.00 | 7.16 | 0.00 | 100 | 1012.1 |
| 20260510055259 | 19 | 154 | 0.0 | 0.0 | 0.00 | 7.16 | 0.00 | 100 | 1012.1 |
| 20260510054800 | 20 | 154 | 0.0 | 1.6 | 0.00 | 7.16 | 0.00 | 100 | 1012.2 |
| 20260510054512 | 20 | 154 | 0.0 | 1.6 | 0.00 | 7.16 | 0.00 | 100 | 1012.1 |
| 20260510053755 | 20 | 154 | 0.0 | 1.6 | 0.00 | 7.16 | 0.00 | 100 | 1012.0 |
| 20260510053517 | 20 | 154 | 0.0 | 1.6 | 0.00 | 7.16 | 0.00 | 100 | 1012.2 |
| 20260510053238 | 20 | 154 | 0.0 | 0.0 | 0.00 | 7.16 | 0.00 | 100 | 1012.1 |
| 20260510052255 | 20 | 154 | 0.0 | 1.6 | 0.00 | 7.19 | 0.00 | 100 | 1011.9 |
| 20260510052025 | 20 | 154 | 0.0 | 1.6 | 0.00 | 7.19 | 0.00 | 100 | 1012.0 |
| 20260510051258 | 20 | 154 | 0.0 | 3.2 | 0.00 | 7.19 | 0.00 | 100 | 1012.1 |
| 20260510051244 | 20 | 154 | 0.0 | 3.2 | 0.00 | 7.19 | 0.00 | 100 | 1012.1 |
| 20260510050257 | 20 | 173 | 0.0 | 1.6 | 0.00 | 7.19 | 0.00 | 100 | 1012.2 |
| 20260510045753 | 20 | 177 | 0.0 | 1.6 | 0.00 | 7.19 | 7.19 | 100 | 1012.2 |
| 20260510045246 | 20 | 177 | 0.0 | 3.2 | 0.00 | 7.19 | 7.19 | 100 | 1012.2 |
| 20260510045000 | 20 | 177 | 0.0 | 3.2 | 0.00 | 7.19 | 7.19 | 100 | 1012.3 |
| 20260510044234 | 20 | 144 | 0.0 | 3.2 | 0.00 | 7.19 | 7.19 | 100 | 1012.3 |
| 20260510043729 | 20 | 144 | 0.0 | 3.2 | 0.00 | 7.19 | 7.19 | 100 | 1012.3 |
| 20260510043223 | 20 | 144 | 0.0 | 1.6 | 0.00 | 7.19 | 7.19 | 100 | 1012.3 |
| 20260510042717 | 20 | 144 | 0.0 | 3.2 | 0.00 | 7.19 | 7.19 | 100 | 1012.2 |
| 20260510042438 | 20 | 144 | 0.0 | 3.2 | 0.00 | 7.19 | 7.19 | 100 | 1012.2 |
| 20260510041927 | 20 | 170 | 1.6 | 4.8 | 0.00 | 7.19 | 7.19 | 100 | 1012.2 |
| 20260510041422 | 20 | 243 | 1.6 | 4.8 | 0.00 | 7.19 | 7.19 | 100 | 1011.9 |
| 20260510040652 | 20 | 244 | 1.6 | 3.2 | 0.00 | 7.19 | 7.19 | 100 | 1011.8 |
| 20260510040147 | 20 | 243 | 1.6 | 4.8 | 0.00 | 7.52 | 7.19 | 100 | 1011.8 |
| 20260510035900 | 20 | 265 | 3.2 | 4.8 | 0.00 | 8.15 | 7.19 | 100 | 1011.6 |
| 20260510035135 | 20 | 261 | 3.2 | 8.0 | 0.00 | 8.23 | 7.19 | 100 | 1011.5 |
| 20260510034628 | 20 | 73 | 3.2 | 8.0 | 0.00 | 8.23 | 7.19 | 100 | 1011.6 |
| 20260510034123 | 20 | 318 | 4.8 | 9.7 | 0.00 | 8.23 | 7.19 | 100 | 1011.6 |
| 20260510033616 | 20 | 71 | 4.8 | 9.7 | 0.03 | 8.23 | 7.19 | 100 | 1011.5 |
| 20260510033111 | 20 | 298 | 3.2 | 8.0 | 0.03 | 8.23 | 7.19 | 100 | 1011.7 |
| 20260510032605 | 20 | 15 | 3.2 | 6.4 | 0.03 | 8.23 | 7.19 | 100 | 1011.6 |
| 20260510032056 | 20 | 262 | 3.2 | 6.4 | 0.08 | 8.23 | 7.19 | 100 | 1011.6 |
| 20260510031556 | 20 | 282 | 1.6 | 6.4 | 0.08 | 8.23 | 7.19 | 100 | 1011.8 |
| 20260510031043 | 20 | 39 | 1.6 | 6.4 | 0.08 | 8.23 | 7.19 | 100 | 1011.7 |
| 20260510030544 | 20 | 272 | 1.6 | 4.8 | 0.08 | 8.23 | 7.19 | 100 | 1011.8 |
| 20260510030044 | 20 | 278 | 1.6 | 3.2 | 0.08 | 8.23 | 7.19 | 100 | 1011.8 |
| 20260510025543 | 20 | 277 | 3.2 | 9.7 | 0.08 | 8.23 | 7.19 | 100 | 1011.7 |
| 20260510025043 | 20 | 267 | 3.2 | 9.7 | 0.08 | 8.23 | 7.19 | 100 | 1011.8 |
| 20260510024540 | 19 | 270 | 1.6 | 6.4 | 0.08 | 8.23 | 7.19 | 100 | 1011.7 |
| 20260510024040 | 19 | 80 | 1.6 | 3.2 | 0.08 | 8.23 | 7.19 | 100 | 1012.2 |
| 20260510023803 | 19 | 199 | 0.0 | 3.2 | 0.05 | 8.20 | 7.19 | 100 | 1012.1 |
| 20260510023038 | 19 | 172 | 1.6 | 4.8 | 0.05 | 8.20 | 7.16 | 100 | 1012.2 |
| 20260510022803 | 19 | 182 | 3.2 | 6.4 | 0.05 | 8.20 | 7.16 | 100 | 1012.4 |
| 20260510022040 | 19 | 21 | 3.2 | 8.0 | 0.00 | 8.15 | 7.11 | 100 | 1012.3 |
| 20260510021757 | 19 | 311 | 3.2 | 8.0 | 0.00 | 8.15 | 7.11 | 100 | 1012.2 |
| 20260510021037 | 19 | 60 | 3.2 | 8.0 | 0.00 | 8.15 | 7.11 | 100 | 1012.0 |
| 20260510020537 | 19 | 322 | 3.2 | 8.0 | 0.00 | 8.15 | 7.11 | 100 | 1011.8 |
| 20260510020038 | 19 | 270 | 3.2 | 6.4 | 0.00 | 8.15 | 7.11 | 100 | 1011.9 |
| 20260510015535 | 19 | 298 | 3.2 | 6.4 | 0.00 | 8.15 | 7.11 | 100 | 1011.9 |
| 20260510015034 | 19 | 266 | 4.8 | 9.7 | 0.00 | 8.15 | 7.11 | 100 | 1011.9 |
| 20260510014535 | 19 | 282 | 6.4 | 12.9 | 0.00 | 8.15 | 7.11 | 100 | 1011.7 |
| 20260510014034 | 19 | 284 | 6.4 | 12.9 | 0.00 | 8.15 | 7.11 | 100 | 1011.7 |
| 20260510013535 | 19 | 289 | 4.8 | 9.7 | 0.00 | 8.15 | 7.11 | 100 | 1012.0 |
| 20260510013036 | 19 | 324 | 3.2 | 8.0 | 0.00 | 8.15 | 7.11 | 100 | 1012.2 |
| 20260510012536 | 19 | 238 | 1.6 | 4.8 | 0.00 | 8.15 | 7.11 | 100 | 1012.4 |
| 20260510012256 | 19 | 160 | 0.0 | 1.6 | 0.00 | 8.15 | 7.11 | 100 | 1012.4 |
| 20260510011536 | 19 | 160 | 0.0 | 1.6 | 0.00 | 8.15 | 7.11 | 100 | 1012.2 |
| 20260510011034 | 19 | 146 | 0.0 | 1.6 | 0.00 | 8.15 | 7.11 | 100 | 1012.2 |
| 20260510010535 | 19 | 146 | 0.0 | 1.6 | 0.00 | 8.15 | 7.11 | 100 | 1012.5 |
| 20260510010034 | 19 | 126 | 0.0 | 1.6 | 0.00 | 8.15 | 7.11 | 100 | 1012.3 |
| 20260510005534 | 19 | 126 | 0.0 | 1.6 | 0.00 | 8.15 | 7.11 | 100 | 1012.2 |
| 20260510005034 | 19 | 126 | 0.0 | 1.6 | 0.00 | 8.15 | 7.11 | 100 | 1012.4 |
| 20260510004535 | 19 | 126 | 0.0 | 1.6 | 0.00 | 8.15 | 7.11 | 100 | 1012.2 |
| 20260510004034 | 19 | 126 | 0.0 | 1.6 | 0.00 | 8.15 | 7.11 | 100 | 1012.2 |
| 20260510003535 | 19 | 126 | 0.0 | 1.6 | 0.00 | 8.15 | 7.11 | 100 | 1012.1 |
| 20260510003035 | 19 | 126 | 0.0 | 1.6 | 0.00 | 8.15 | 7.11 | 100 | 1012.1 |
| 20260510002529 | 19 | 126 | 0.0 | 1.6 | 0.00 | 8.15 | 7.11 | 100 | 1012.1 |
| 20260510002023 | 19 | 126 | 0.0 | 1.6 | 0.00 | 8.15 | 7.11 | 100 | 1011.9 |
| 20260510001523 | 19 | 270 | 0.0 | 0.0 | 0.00 | 8.15 | 7.11 | 100 | 1011.9 |
| 20260510001240 | 19 | 270 | 0.0 | 0.0 | 0.00 | 8.15 | 7.11 | 100 | 1011.5 |
| 20260510000520 | 19 | 270 | 0.0 | 3.2 | 0.00 | 8.15 | 7.11 | 100 | 1011.4 |
| 20260510000017 | 19 | 270 | 1.6 | 4.8 | 0.00 | 8.15 | 7.11 | 100 | 1011.2 |
| 20260509235518 | 19 | 270 | 1.6 | 4.8 | 0.00 | 8.15 | 7.11 | 100 | 1010.9 |
| 20260509235231 | 19 | 266 | 1.6 | 4.8 | 0.03 | 8.15 | 7.11 | 100 | 1010.7 |
| 20260509234512 | 19 | 272 | 1.6 | 4.8 | 0.03 | 8.15 | 7.11 | 100 | 1010.7 |
| 20260509234010 | 19 | 277 | 3.2 | 4.8 | 0.05 | 8.15 | 7.11 | 100 | 1010.7 |
| 20260509233511 | 19 | 264 | 3.2 | 6.4 | 0.05 | 8.15 | 7.11 | 100 | 1010.5 |
| 20260509233010 | 19 | 258 | 3.2 | 6.4 | 0.08 | 8.15 | 7.11 | 100 | 1010.5 |
| 20260509232508 | 19 | 57 | 4.8 | 12.9 | 0.10 | 8.15 | 7.11 | 100 | 1010.4 |
| 20260509232006 | 19 | 279 | 4.8 | 12.9 | 0.13 | 8.15 | 7.11 | 100 | 1010.3 |
| 20260509231506 | 19 | 300 | 6.4 | 11.3 | 0.15 | 8.20 | 7.11 | 100 | 1010.0 |
| 20260509231007 | 19 | 270 | 6.4 | 11.3 | 0.18 | 8.31 | 7.11 | 100 | 1010.0 |
| 20260509230507 | 19 | 277 | 4.8 | 11.3 | 0.23 | 8.33 | 7.11 | 100 | 1010.0 |
| 20260509230209 | 19 | 278 | 3.2 | 8.0 | 0.28 | 8.38 | 7.11 | 100 | 1010.3 |
| 20260509230056 | 19 | 274 | 3.2 | 8.0 | 0.25 | 8.36 | 7.11 | 100 | 1010.2 |
| 20260509225009 | 19 | 273 | 4.8 | 8.0 | 0.25 | 8.46 | 7.09 | 100 | 1010.4 |
| 20260509224510 | 19 | 303 | 6.4 | 11.3 | 0.28 | 8.51 | 7.09 | 100 | 1010.8 |
| 20260509224005 | 19 | 279 | 6.4 | 11.3 | 0.30 | 8.48 | 7.06 | 100 | 1010.9 |
| 20260509223458 | 19 | 268 | 4.8 | 8.0 | 0.33 | 8.48 | 7.06 | 100 | 1011.0 |
| 20260509222952 | 19 | 268 | 4.8 | 8.0 | 0.36 | 8.46 | 7.04 | 100 | 1011.1 |
| 20260509222445 | 19 | 274 | 3.2 | 6.4 | 0.36 | 8.43 | 7.01 | 100 | 1011.2 |
| 20260509221939 | 19 | 281 | 0.0 | 6.4 | 0.36 | 8.41 | 6.99 | 100 | 1011.2 |
| 20260509221434 | 19 | 208 | 0.0 | 1.6 | 0.36 | 8.38 | 6.96 | 100 | 1011.2 |
| 20260509220933 | 19 | 208 | 1.6 | 4.8 | 0.38 | 8.36 | 6.93 | 100 | 1010.9 |
| 20260509220418 | 19 | 230 | 1.6 | 4.8 | 0.38 | 8.31 | 6.88 | 100 | 1011.2 |
| 20260509215912 | 19 | 241 | 1.6 | 3.2 | 0.38 | 8.28 | 6.86 | 100 | 1011.5 |
| 20260509215406 | 19 | 241 | 1.6 | 3.2 | 0.41 | 8.26 | 6.83 | 100 | 1011.8 |
| 20260509215120 | 19 | 241 | 0.0 | 1.6 | 0.41 | 8.23 | 6.83 | 100 | 1011.7 |
| 20260509214354 | 19 | 241 | 1.6 | 4.8 | 0.41 | 8.23 | 6.81 | 100 | 1011.2 |
| 20260509213848 | 19 | 241 | 3.2 | 8.0 | 0.46 | 8.26 | 6.76 | 100 | 1010.8 |
| 20260509213342 | 19 | 267 | 3.2 | 8.0 | 0.48 | 8.23 | 6.73 | 100 | 1010.5 |
| 20260509212835 | 19 | 279 | 1.6 | 8.0 | 0.56 | 8.23 | 6.68 | 100 | 1010.5 |
| 20260509212553 | 19 | 267 | 1.6 | 4.8 | 0.56 | 8.23 | 6.65 | 100 | 1010.7 |
| 20260509212044 | 19 | 260 | 1.6 | 4.8 | 0.56 | 8.26 | 6.63 | 100 | 1010.9 |
| 20260509211317 | 19 | 271 | 3.2 | 4.8 | 0.51 | 8.23 | 6.58 | 100 | 1011.3 |
| 20260509210812 | 19 | 267 | 3.2 | 4.8 | 0.48 | 8.23 | 6.55 | 100 | 1011.3 |
| 20260509210306 | 19 | 248 | 3.2 | 4.8 | 0.43 | 8.20 | 6.50 | 100 | 1011.2 |
| 20260509205800 | 19 | 280 | 1.6 | 4.8 | 0.38 | 8.18 | 6.48 | 100 | 1011.5 |
| 20260509205254 | 19 | 265 | 3.2 | 4.8 | 0.38 | 8.23 | 6.43 | 100 | 1011.6 |
| 20260509204747 | 19 | 270 | 3.2 | 4.8 | 0.33 | 8.20 | 6.40 | 100 | 1011.8 |
| 20260509204242 | 19 | 281 | 1.6 | 4.8 | 0.33 | 8.18 | 6.35 | 100 | 1011.6 |
| 20260509203736 | 19 | 98 | 0.0 | 1.6 | 0.30 | 8.10 | 6.30 | 100 | 1011.7 |
| 20260509203436 | 19 | 88 | 0.0 | 3.2 | 0.23 | 7.98 | 6.12 | 100 | 1011.8 |
| 20260509203321 | 19 | 98 | 0.0 | 3.2 | 0.28 | 8.03 | 6.22 | 100 | 1011.8 |
| 20260509202218 | 19 | 268 | 0.0 | 1.6 | 0.28 | 7.95 | 6.10 | 100 | 1011.8 |
| 20260509201711 | 19 | 268 | 0.0 | 3.2 | 0.33 | 7.95 | 6.07 | 100 | 1011.5 |
| 20260509201205 | 19 | 268 | 1.6 | 3.2 | 0.41 | 7.98 | 6.07 | 100 | 1011.4 |
| 20260509200659 | 19 | 268 | 3.2 | 11.3 | 0.43 | 7.98 | 6.07 | 100 | 1011.6 |
| 20260509200154 | 19 | 274 | 3.2 | 11.3 | 0.48 | 7.98 | 6.07 | 100 | 1011.4 |
| 20260509195647 | 19 | 277 | 1.6 | 8.0 | 0.56 | 8.00 | 6.07 | 100 | 1011.1 |
| 20260509195142 | 19 | 301 | 1.6 | 8.0 | 0.66 | 7.98 | 6.05 | 100 | 1010.8 |
| 20260509194635 | 19 | 282 | 1.6 | 6.4 | 0.69 | 7.95 | 6.05 | 100 | 1010.8 |
| 20260509194608 | 19 | 211 | 3.2 | 11.3 | 0.74 | 7.95 | 6.02 | 100 | 1011.1 |
| 20260509193625 | 19 | 270 | 6.4 | 11.3 | 0.71 | 7.92 | 5.97 | 100 | 1011.4 |
| 20260509193117 | 19 | 267 | 6.4 | 12.9 | 0.71 | 7.87 | 5.92 | 99 | 1011.5 |
| 20260509192838 | 19 | 284 | 6.4 | 12.9 | 0.71 | 7.87 | 5.87 | 99 | 1011.3 |
| 20260509192105 | 19 | 279 | 6.4 | 11.3 | 0.71 | 7.90 | 5.79 | 99 | 1011.5 |
| 20260509191559 | 19 | 286 | 3.2 | 9.7 | 0.74 | 7.90 | 5.71 | 100 | 1011.9 |
| 20260509191053 | 20 | 44 | 4.8 | 9.7 | 0.69 | 7.92 | 5.64 | 100 | 1012.1 |
| 20260509190548 | 20 | 47 | 4.8 | 11.3 | 0.66 | 8.03 | 5.64 | 100 | 1012.1 |
| 20260509190042 | 20 | 290 | 6.4 | 11.3 | 0.61 | 8.05 | 5.59 | 100 | 1012.0 |
| 20260509185535 | 20 | 284 | 4.8 | 11.3 | 0.56 | 8.10 | 5.51 | 100 | 1011.8 |
| 20260509185029 | 20 | 274 | 3.2 | 6.4 | 0.41 | 8.00 | 5.38 | 100 | 1012.2 |
| 20260509184523 | 20 | 284 | 4.8 | 9.7 | 0.36 | 7.98 | 5.33 | 100 | 1012.3 |
| 20260509184018 | 20 | 338 | 4.8 | 9.7 | 0.33 | 7.98 | 5.28 | 100 | 1012.2 |
| 20260509183512 | 20 | 325 | 4.8 | 9.7 | 0.28 | 8.13 | 5.26 | 100 | 1012.1 |
| 20260509183005 | 20 | 265 | 4.8 | 12.9 | 0.23 | 8.69 | 5.21 | 100 | 1012.0 |
| 20260509182500 | 20 | 265 | 4.8 | 12.9 | 0.18 | 8.99 | 5.16 | 100 | 1012.0 |
| 20260509181953 | 20 | 265 | 4.8 | 8.0 | 0.10 | 9.58 | 5.08 | 100 | 1011.9 |
| 20260509181448 | 20 | 249 | 4.8 | 12.9 | 0.00 | 10.24 | 4.98 | 100 | 1012.0 |
| 20260509180941 | 20 | 227 | 4.8 | 12.9 | 0.03 | 10.72 | 4.95 | 100 | 1012.3 |
| 20260509180706 | 19 | 322 | 4.8 | 8.0 | 0.03 | 10.82 | 4.95 | 100 | 1012.1 |
| 20260509180159 | 19 | 297 | 3.2 | 8.0 | 0.03 | 10.82 | 4.95 | 100 | 1012.0 |
| 20260509175440 | 19 | 287 | 3.2 | 8.0 | 0.03 | 10.85 | 4.95 | 100 | 1011.7 |
| 20260509175249 | 19 | 312 | 3.2 | 9.7 | 0.08 | 10.90 | 4.95 | 100 | 1011.6 |
| 20260509175202 | 19 | 342 | 3.2 | 9.7 | 0.08 | 10.95 | 4.95 | 100 | 1011.6 |
| 20260509174423 | 19 | 267 | 3.2 | 9.7 | 0.10 | 10.97 | 4.95 | 100 | 1011.5 |
| 20260509173435 | 19 | 263 | 1.6 | 9.7 | 0.10 | 11.10 | 4.95 | 100 | 1011.5 |
| 20260509172937 | 19 | 66 | 1.6 | 6.4 | 0.10 | 11.30 | 4.95 | 100 | 1011.3 |
| 20260509172435 | 19 | 272 | 4.8 | 9.7 | 0.13 | 11.35 | 4.95 | 100 | 1011.4 |
| 20260509171934 | 19 | 276 | 4.8 | 9.7 | 0.15 | 11.46 | 4.95 | 100 | 1011.7 |
| 20260509171435 | 19 | 274 | 4.8 | 8.0 | 0.15 | 11.84 | 4.95 | 100 | 1011.5 |
| 20260509170932 | 19 | 269 | 4.8 | 14.5 | 0.13 | 12.12 | 4.93 | 100 | 1011.8 |
| 20260509170432 | 19 | 261 | 4.8 | 14.5 | 0.15 | 12.70 | 4.93 | 100 | 1011.7 |
| 20260509165933 | 19 | 285 | 4.8 | 9.7 | 0.15 | 13.00 | 4.93 | 100 | 1011.8 |
| 20260509165659 | 19 | 282 | 3.2 | 6.4 | 0.15 | 13.18 | 4.93 | 100 | 1011.8 |
| 20260509165154 | 19 | 268 | 4.8 | 9.7 | 0.10 | 13.39 | 4.88 | 100 | 1012.1 |
| 20260509164429 | 19 | 312 | 4.8 | 12.9 | 0.10 | 13.46 | 4.88 | 100 | 1011.9 |
| 20260509163928 | 19 | 277 | 4.8 | 12.9 | 0.08 | 13.46 | 4.85 | 100 | 1011.7 |
| 20260509163429 | 19 | 238 | 4.8 | 11.3 | 0.08 | 13.46 | 4.85 | 100 | 1011.6 |
| 20260509162926 | 18 | 239 | 4.8 | 11.3 | 0.08 | 13.46 | 4.85 | 100 | 1011.9 |
| 20260509162425 | 18 | 284 | 4.8 | 9.7 | 0.05 | 13.44 | 4.83 | 100 | 1012.2 |
| 20260509161927 | 18 | 332 | 4.8 | 8.0 | 0.03 | 13.41 | 4.80 | 100 | 1012.6 |
| 20260509161426 | 18 | 44 | 3.2 | 6.4 | 0.03 | 13.41 | 4.80 | 100 | 1012.5 |
| 20260509160925 | 18 | 270 | 3.2 | 8.0 | 0.03 | 13.41 | 4.80 | 100 | 1012.2 |
| 20260509160647 | 18 | 267 | 3.2 | 8.0 | 0.00 | 13.39 | 4.78 | 100 | 1012.0 |
| 20260509155927 | 18 | 255 | 1.6 | 8.0 | 0.00 | 13.39 | 4.78 | 100 | 1012.0 |
| 20260509155425 | 18 | 181 | 0.0 | 3.2 | 0.00 | 13.39 | 4.78 | 100 | 1012.0 |
| 20260509154928 | 18 | 178 | 1.6 | 4.8 | 0.00 | 13.39 | 4.78 | 100 | 1012.2 |
| 20260509154426 | 18 | 275 | 1.6 | 6.4 | 0.00 | 13.39 | 4.78 | 100 | 1012.1 |
| 20260509153926 | 18 | 287 | 3.2 | 8.0 | 0.00 | 13.39 | 4.78 | 100 | 1012.1 |
| 20260509153427 | 18 | 265 | 3.2 | 8.0 | 0.00 | 13.39 | 4.78 | 100 | 1012.4 |
| 20260509152925 | 18 | 269 | 1.6 | 6.4 | 0.00 | 13.39 | 4.78 | 100 | 1012.4 |
| 20260509152425 | 18 | 265 | 1.6 | 3.2 | 0.00 | 13.39 | 4.78 | 100 | 1012.1 |
| 20260509151925 | 18 | 265 | 1.6 | 3.2 | 0.08 | 13.39 | 4.78 | 100 | 1012.2 |
| 20260509151427 | 18 | 265 | 1.6 | 4.8 | 0.13 | 13.39 | 4.78 | 100 | 1012.2 |
| 20260509150921 | 18 | 267 | 1.6 | 4.8 | 0.20 | 13.39 | 4.78 | 100 | 1012.2 |
| 20260509150423 | 18 | 285 | 1.6 | 4.8 | 0.25 | 13.39 | 4.78 | 100 | 1011.8 |
| 20260509145923 | 18 | 264 | 3.2 | 6.4 | 0.28 | 13.39 | 4.78 | 100 | 1011.7 |
| 20260509145422 | 18 | 233 | 4.8 | 6.4 | 0.36 | 13.39 | 4.78 | 100 | 1012.0 |
| 20260509144922 | 18 | 298 | 3.2 | 6.4 | 0.48 | 13.39 | 4.78 | 100 | 1012.0 |
| 20260509144421 | 18 | 271 | 4.8 | 9.7 | 0.53 | 13.39 | 4.78 | 100 | 1011.8 |
| 20260509143922 | 18 | 318 | 4.8 | 9.7 | 0.53 | 13.39 | 4.78 | 100 | 1011.8 |
| 20260509143421 | 18 | 272 | 4.8 | 9.7 | 0.61 | 13.39 | 4.78 | 100 | 1011.6 |
| 20260509142921 | 18 | 273 | 4.8 | 9.7 | 0.71 | 13.39 | 4.78 | 100 | 1011.5 |
| 20260509142424 | 18 | 271 | 3.2 | 8.0 | 0.89 | 13.39 | 4.78 | 100 | 1011.5 |
| 20260509141920 | 18 | 272 | 3.2 | 6.4 | 1.09 | 13.31 | 4.72 | 100 | 1011.4 |
| 20260509141419 | 18 | 260 | 3.2 | 6.4 | 1.42 | 13.26 | 4.65 | 100 | 1011.5 |
| 20260509140920 | 18 | 283 | 3.2 | 8.0 | 1.60 | 13.18 | 4.60 | 100 | 1011.6 |
| 20260509140414 | 18 | 305 | 3.2 | 8.0 | 1.91 | 13.13 | 4.52 | 100 | 1011.6 |
| 20260509135908 | 18 | 267 | 3.2 | 8.0 | 2.01 | 13.11 | 4.50 | 100 | 1012.1 |
| 20260509135402 | 18 | 319 | 1.6 | 6.4 | 2.01 | 13.03 | 4.45 | 100 | 1011.9 |
| 20260509134857 | 18 | 170 | 3.2 | 9.7 | 1.91 | 12.88 | 4.29 | 100 | 1011.5 |
| 20260509134350 | 18 | 265 | 1.6 | 9.7 | 1.91 | 12.85 | 4.24 | 100 | 1011.4 |
| 20260509133844 | 18 | 215 | 1.6 | 4.8 | 1.93 | 12.85 | 4.24 | 100 | 1011.4 |
| 20260509133338 | 18 | 278 | 1.6 | 4.8 | 1.91 | 12.78 | 4.17 | 100 | 1011.8 |
| 20260509133105 | 18 | 260 | 1.6 | 4.8 | 1.93 | 12.65 | 4.06 | 100 | 1012.0 |
| 20260509132325 | 18 | 296 | 0.0 | 4.8 | 2.16 | 12.45 | 3.84 | 100 | 1011.9 |
| 20260509131820 | 18 | 163 | 0.0 | 1.6 | 2.36 | 12.14 | 3.56 | 100 | 1012.1 |
| 20260509131314 | 18 | 162 | 0.0 | 1.6 | 2.36 | 11.79 | 3.20 | 100 | 1011.8 |
| 20260509130808 | 18 | 169 | 0.0 | 1.6 | 2.34 | 11.46 | 2.90 | 100 | 1012.2 |
| 20260509130302 | 18 | 169 | 0.0 | 3.2 | 2.46 | 11.20 | 2.62 | 100 | 1012.0 |
| 20260509125756 | 18 | 214 | 1.6 | 4.8 | 2.39 | 11.07 | 2.46 | 100 | 1011.6 |
| 20260509125250 | 18 | 225 | 1.6 | 4.8 | 2.36 | 11.00 | 2.41 | 99 | 1011.6 |
| 20260509124743 | 18 | 226 | 1.6 | 4.8 | 2.34 | 10.97 | 2.36 | 99 | 1011.5 |
| 20260509124238 | 18 | 183 | 1.6 | 4.8 | 2.31 | 10.95 | 2.34 | 99 | 1011.4 |
| 20260509123733 | 18 | 179 | 1.6 | 3.2 | 2.29 | 10.92 | 2.31 | 99 | 1011.2 |
| 20260509123226 | 18 | 242 | 1.6 | 8.0 | 2.21 | 10.85 | 2.24 | 99 | 1011.7 |
| 20260509122720 | 18 | 241 | 1.6 | 8.0 | 2.01 | 10.64 | 2.03 | 99 | 1012.0 |
| 20260509122214 | 18 | 248 | 1.6 | 8.0 | 1.57 | 10.21 | 1.60 | 98 | 1012.1 |
| 20260509121935 | 18 | 167 | 3.2 | 8.0 | 1.04 | 9.68 | 1.12 | 98 | 1011.9 |
| 20260509121202 | 18 | 179 | 4.8 | 17.7 | 0.64 | 9.27 | 0.74 | 98 | 1011.9 |
| 20260509120655 | 19 | 150 | 4.8 | 17.7 | 0.41 | 9.04 | 0.46 | 97 | 1011.7 |
| 20260509120150 | 20 | 210 | 4.8 | 16.1 | 0.08 | 8.71 | 0.13 | 96 | 1011.7 |
| 20260509115644 | 21 | 96 | 1.6 | 16.1 | 0.03 | 8.66 | 0.05 | 96 | 1011.6 |
| 20260509115138 | 21 | 172 | 0.0 | 3.2 | 0.00 | 8.64 | 0.03 | 99 | 1011.3 |
| 20260509114632 | 21 | 281 | 0.0 | 1.6 | 0.00 | 8.64 | 0.03 | 99 | 1010.7 |
| 20260509114348 | 21 | 284 | 0.0 | 1.6 | 0.00 | 8.64 | 0.03 | 99 | 1010.3 |
| 20260509113625 | 21 | 284 | 0.0 | 1.6 | 0.00 | 8.64 | 0.03 | 99 | 1010.1 |
| 20260509113114 | 21 | 284 | 0.0 | 1.6 | 0.00 | 8.64 | 0.03 | 98 | 1010.0 |
| 20260509112832 | 21 | 284 | 1.6 | 4.8 | 0.00 | 8.64 | 0.03 | 98 | 1009.8 |
| 20260509112102 | 21 | 284 | 1.6 | 4.8 | 0.00 | 8.64 | 0.03 | 98 | 1009.7 |
| 20260509111555 | 21 | 65 | 1.6 | 4.8 | 0.00 | 8.64 | 0.03 | 98 | 1009.6 |
| 20260509111050 | 21 | 332 | 1.6 | 6.4 | 0.00 | 8.64 | 0.03 | 98 | 1009.6 |
| 20260509110804 | 21 | 274 | 3.2 | 6.4 | 0.00 | 8.64 | 0.03 | 98 | 1009.2 |
| 20260509110044 | 21 | 277 | 3.2 | 6.4 | 0.00 | 8.64 | 0.03 | 98 | 1009.1 |
| 20260509105544 | 21 | 299 | 3.2 | 4.8 | 0.00 | 8.64 | 0.03 | 98 | 1008.9 |
| 20260509105044 | 21 | 274 | 3.2 | 4.8 | 0.00 | 8.64 | 0.03 | 98 | 1008.6 |
| 20260509104543 | 21 | 317 | 4.8 | 11.3 | 0.00 | 8.64 | 0.03 | 98 | 1008.8 |
| 20260509104043 | 21 | 281 | 4.8 | 11.3 | 0.00 | 8.64 | 0.03 | 98 | 1008.9 |
| 20260509103547 | 21 | 300 | 4.8 | 11.3 | 0.00 | 8.64 | 0.03 | 98 | 1008.7 |
| 20260509103045 | 21 | 338 | 3.2 | 8.0 | 0.00 | 8.64 | 0.03 | 98 | 1009.0 |
| 20260509102804 | 21 | 267 | 3.2 | 6.4 | 0.00 | 8.64 | 0.03 | 98 | 1009.0 |
| 20260509102044 | 21 | 272 | 3.2 | 6.4 | 0.00 | 8.64 | 0.03 | 98 | 1009.2 |
| 20260509101541 | 21 | 302 | 3.2 | 6.4 | 0.00 | 8.64 | 0.03 | 99 | 1009.1 |
| 20260509101041 | 21 | 294 | 3.2 | 6.4 | 0.00 | 8.64 | 0.03 | 99 | 1009.2 |
| 20260509101021 | 21 | 36 | 1.6 | 6.4 | 0.00 | 8.64 | 0.03 | 99 | 1009.0 |
| 20260509100042 | 21 | 263 | 1.6 | 3.2 | 0.00 | 8.64 | 0.03 | 99 | 1009.0 |
| 20260509095541 | 21 | 263 | 3.2 | 8.0 | 0.00 | 8.64 | 0.03 | 99 | 1008.8 |
| 20260509095041 | 21 | 311 | 3.2 | 8.0 | 0.00 | 8.64 | 0.03 | 99 | 1008.5 |
| 20260509094542 | 21 | 103 | 1.6 | 4.8 | 0.00 | 8.64 | 0.03 | 99 | 1008.5 |
| 20260509094045 | 21 | 214 | 3.2 | 4.8 | 0.00 | 8.64 | 0.03 | 99 | 1008.4 |
| 20260509093539 | 21 | 242 | 3.2 | 4.8 | 0.00 | 8.64 | 0.03 | 99 | 1008.1 |
| 20260509093039 | 21 | 246 | 3.2 | 4.8 | 0.00 | 8.64 | 0.03 | 99 | 1008.3 |
| 20260509092538 | 21 | 245 | 1.6 | 4.8 | 0.00 | 8.64 | 0.03 | 99 | 1008.4 |
| 20260509092036 | 21 | 245 | 0.0 | 3.2 | 0.00 | 8.64 | 0.03 | 99 | 1008.6 |
| 20260509091534 | 21 | 245 | 0.0 | 3.2 | 0.00 | 8.64 | 0.03 | 99 | 1008.7 |
| 20260509091035 | 21 | 260 | 1.6 | 4.8 | 0.00 | 8.64 | 0.03 | 99 | 1008.6 |
| 20260509090757 | 21 | 260 | 3.2 | 6.4 | 0.00 | 8.64 | 0.03 | 99 | 1008.6 |
| 20260509090032 | 21 | 272 | 3.2 | 6.4 | 0.00 | 8.64 | 0.03 | 99 | 1008.6 |
| 20260509085529 | 21 | 260 | 3.2 | 6.4 | 0.00 | 8.64 | 0.03 | 99 | 1008.8 |
| 20260509085029 | 21 | 261 | 3.2 | 6.4 | 0.00 | 8.64 | 0.03 | 99 | 1008.9 |
| 20260509084530 | 21 | 261 | 3.2 | 8.0 | 0.00 | 8.64 | 0.03 | 99 | 1009.0 |
| 20260509084026 | 21 | 304 | 3.2 | 8.0 | 0.00 | 8.64 | 0.03 | 99 | 1009.2 |
| 20260509083526 | 21 | 256 | 4.8 | 8.0 | 0.00 | 8.64 | 0.03 | 99 | 1009.4 |
| 20260509083028 | 21 | 310 | 4.8 | 8.0 | 0.00 | 8.64 | 0.03 | 100 | 1009.3 |
| 20260509082527 | 21 | 272 | 4.8 | 8.0 | 0.00 | 8.64 | 0.03 | 100 | 1009.4 |
| 20260509082027 | 21 | 337 | 4.8 | 8.0 | 0.00 | 8.64 | 0.03 | 100 | 1009.4 |
| 20260509081748 | 21 | 309 | 3.2 | 6.4 | 0.00 | 8.64 | 0.03 | 100 | 1009.4 |
| 20260509081024 | 20 | 264 | 3.2 | 6.4 | 0.00 | 8.64 | 0.03 | 100 | 1009.6 |
| 20260509080522 | 20 | 272 | 3.2 | 6.4 | 0.00 | 8.64 | 0.03 | 100 | 1009.7 |
| 20260509080246 | 20 | 272 | 3.2 | 6.4 | 0.00 | 8.64 | 0.03 | 100 | 1009.6 |
| 20260509075521 | 20 | 239 | 1.6 | 6.4 | 0.00 | 8.64 | 0.03 | 100 | 1009.7 |
| 20260509075019 | 20 | 274 | 3.2 | 6.4 | 0.00 | 8.64 | 0.03 | 100 | 1009.8 |
| 20260509074520 | 20 | 288 | 3.2 | 6.4 | 0.00 | 8.64 | 0.03 | 100 | 1009.8 |
| 20260509074018 | 20 | 310 | 3.2 | 6.4 | 0.00 | 8.64 | 0.03 | 100 | 1009.8 |
| 20260509073523 | 20 | 272 | 4.8 | 9.7 | 0.00 | 8.64 | 0.03 | 100 | 1010.0 |
| 20260509073019 | 20 | 262 | 6.4 | 9.7 | 0.00 | 8.64 | 0.03 | 100 | 1010.1 |
| 20260509072518 | 20 | 278 | 3.2 | 9.7 | 0.00 | 8.64 | 0.03 | 100 | 1010.0 |
| 20260509072018 | 20 | 284 | 1.6 | 4.8 | 0.00 | 8.64 | 0.03 | 100 | 1010.7 |
| 20260509071519 | 20 | 176 | 0.0 | 8.0 | 0.00 | 8.64 | 0.03 | 100 | 1011.1 |
| 20260509071017 | 20 | 137 | 0.0 | 8.0 | 0.00 | 8.64 | 0.03 | 100 | 1011.4 |
| 20260509070516 | 20 | 126 | 1.6 | 8.0 | 0.00 | 8.64 | 0.03 | 100 | 1011.1 |